createdAt,value
2018-07-12T00:02:13.262Z,7.73
2018-07-12T00:04:40.977Z,6.65
2018-07-12T00:07:08.611Z,6.65
2018-07-12T00:09:36.169Z,7.80
2018-07-12T00:12:03.704Z,6.73
2018-07-12T00:14:32.140Z,7.33
2018-07-12T00:16:59.769Z,7.63
2018-07-12T00:19:27.316Z,6.70
2018-07-12T00:21:55.658Z,7.10
2018-07-12T00:24:23.225Z,7.40
2018-07-12T00:26:50.881Z,7.67
2018-07-12T00:29:18.744Z,7.43
2018-07-12T00:31:46.751Z,7.85
2018-07-12T00:34:14.563Z,7.73
2018-07-12T00:36:42.329Z,6.65
2018-07-12T00:39:11.757Z,7.60
2018-07-12T00:41:40.032Z,8.40
2018-07-12T00:44:07.758Z,7.57
2018-07-12T00:46:35.699Z,7.23
2018-07-12T00:49:03.350Z,7.90
2018-07-12T00:51:31.497Z,8.13
2018-07-12T00:53:59.301Z,8.87
2018-07-12T00:56:26.883Z,8.20
2018-07-12T00:58:54.753Z,7.53
2018-07-12T01:01:22.553Z,8.33
2018-07-12T01:03:50.267Z,8.77
2018-07-12T01:06:19.571Z,8.23
2018-07-12T01:08:47.346Z,7.57
2018-07-12T01:11:16.638Z,8.87
2018-07-12T01:13:45.443Z,7.83
2018-07-12T01:16:13.409Z,8.13
2018-07-12T01:18:41.208Z,7.10
2018-07-12T01:21:08.986Z,7.50
2018-07-12T01:23:36.612Z,7.13
2018-07-12T01:26:04.611Z,8.07
2018-07-12T01:28:32.173Z,8.10
2018-07-12T01:31:00.267Z,7.63
2018-07-12T01:33:28.175Z,8.37
2018-07-12T01:35:56.286Z,8.00
2018-07-12T01:38:24.900Z,8.20
2018-07-12T01:40:52.594Z,8.10
2018-07-12T01:43:20.224Z,7.70
2018-07-12T01:45:47.945Z,7.90
2018-07-12T01:48:15.610Z,6.85
2018-07-12T01:50:43.410Z,7.90
2018-07-12T01:53:11.343Z,7.93
2018-07-12T01:55:40.824Z,7.33
2018-07-12T01:58:09.054Z,8.27
2018-07-12T02:00:37.647Z,7.72
2018-07-12T02:03:05.247Z,9.27
2018-07-12T02:05:32.904Z,8.40
2018-07-12T02:08:00.607Z,7.50
2018-07-12T02:10:28.251Z,8.43
2018-07-12T02:12:55.901Z,8.03
2018-07-12T02:15:24.225Z,7.30
2018-07-12T02:17:52.717Z,8.03
2018-07-12T02:20:20.851Z,8.08
2018-07-12T02:22:48.646Z,8.80
2018-07-12T02:25:16.627Z,7.93
2018-07-12T02:27:45.281Z,9.07
2018-07-12T02:30:13.412Z,7.93
2018-07-12T02:32:41.384Z,8.03
2018-07-12T02:35:09.338Z,8.17
2018-07-12T02:37:37.191Z,7.53
2018-07-12T02:40:05.007Z,9.53
2018-07-12T02:42:32.627Z,8.93
2018-07-12T02:45:00.472Z,8.65
2018-07-12T02:47:28.217Z,8.40
2018-07-12T02:49:56.336Z,8.77
2018-07-12T02:52:24.360Z,8.00
2018-07-12T02:54:53.963Z,8.63
2018-07-12T02:57:21.627Z,8.53
2018-07-12T02:59:49.303Z,8.93
2018-07-12T03:02:17.045Z,9.35
2018-07-12T03:04:44.680Z,9.40
2018-07-12T03:07:13.422Z,9.25
2018-07-12T03:09:41.038Z,10.20
2018-07-12T03:12:08.643Z,9.30
2018-07-12T03:14:36.256Z,9.33
2018-07-12T03:17:03.912Z,8.73
2018-07-12T03:19:31.705Z,9.20
2018-07-12T03:22:00.626Z,9.53
2018-07-12T03:24:28.476Z,9.20
2018-07-12T03:26:56.380Z,9.50
2018-07-12T03:29:23.997Z,9.60
2018-07-12T03:31:52.085Z,9.23
2018-07-12T03:34:20.229Z,9.08
2018-07-12T03:36:47.977Z,10.03
2018-07-12T03:39:16.386Z,9.63
2018-07-12T03:41:44.869Z,10.45
2018-07-12T03:44:13.037Z,9.90
2018-07-12T03:46:41.077Z,10.63
2018-07-12T03:49:09.372Z,10.17
2018-07-12T03:51:38.805Z,9.38
2018-07-12T03:54:06.489Z,10.45
2018-07-12T03:56:34.397Z,11.37
2018-07-12T03:59:02.416Z,11.40
2018-07-12T04:01:30.408Z,11.33
2018-07-12T04:03:58.573Z,11.38
2018-07-12T04:06:26.392Z,10.83
2018-07-12T04:08:54.592Z,11.20
2018-07-12T04:11:23.333Z,12.13
2018-07-12T04:13:51.924Z,11.80
2018-07-12T04:16:19.655Z,12.00
2018-07-12T04:18:47.710Z,11.37
2018-07-12T04:21:15.393Z,12.00
2018-07-12T04:23:43.973Z,10.33
2018-07-12T04:26:11.615Z,11.97
2018-07-12T04:28:39.490Z,11.70
2018-07-12T04:31:07.174Z,11.90
2018-07-12T04:33:35.467Z,12.10
2018-07-12T04:36:03.728Z,13.80
2018-07-12T04:38:32.644Z,13.90
2018-07-12T04:41:02.388Z,15.53
2018-07-12T04:43:30.304Z,14.83
2018-07-12T04:45:58.808Z,15.75
2018-07-12T04:48:26.669Z,16.05
2018-07-12T04:50:54.777Z,16.30
2018-07-12T04:53:22.833Z,16.03
2018-07-12T04:55:50.511Z,17.20
2018-07-12T04:58:18.229Z,16.77
2018-07-12T05:00:45.793Z,17.37
2018-07-12T05:03:13.577Z,16.05
2018-07-12T05:05:41.149Z,16.20
2018-07-12T05:08:09.949Z,15.53
2018-07-12T05:10:37.610Z,17.27
2018-07-12T05:13:05.347Z,16.40
2018-07-12T05:15:33.036Z,16.03
2018-07-12T05:18:00.657Z,16.20
2018-07-12T05:20:28.357Z,16.60
2018-07-12T05:22:56.334Z,16.27
2018-07-12T05:25:24.853Z,15.68
2018-07-12T05:27:52.753Z,17.07
2018-07-12T05:30:20.349Z,16.40
2018-07-12T05:32:48.335Z,16.73
2018-07-12T05:35:16.926Z,17.02
2018-07-12T05:37:47.621Z,17.67
2018-07-12T05:40:17.618Z,17.43
2018-07-12T05:42:47.654Z,16.27
2018-07-12T05:45:18.068Z,17.20
2018-07-12T05:47:48.255Z,17.67
2018-07-12T05:50:17.600Z,17.37
2018-07-12T05:52:47.791Z,18.57
2018-07-12T05:55:17.680Z,16.73
2018-07-12T05:57:48.270Z,17.43
2018-07-12T06:00:19.762Z,17.66
2018-07-12T06:02:51.380Z,16.87
2018-07-12T06:05:23.483Z,17.20
2018-07-12T06:07:54.130Z,16.97
2018-07-12T06:10:26.565Z,16.73
2018-07-12T06:12:56.421Z,15.63
2018-07-12T06:15:27.670Z,16.10
2018-07-12T06:18:04.689Z,16.50
2018-07-12T06:20:34.573Z,16.47
2018-07-12T06:23:05.235Z,16.93
2018-07-12T06:25:37.834Z,16.42
2018-07-12T06:28:07.845Z,17.17
2018-07-12T06:30:37.512Z,17.20
2018-07-12T06:33:07.207Z,16.00
2018-07-12T06:35:37.748Z,15.83
2018-07-12T06:38:07.019Z,15.97
2018-07-12T06:40:36.747Z,15.37
2018-07-12T06:43:06.540Z,14.73
2018-07-12T06:45:36.375Z,14.05
2018-07-12T06:48:06.081Z,13.70
2018-07-12T06:50:35.307Z,14.18
2018-07-12T06:53:05.273Z,13.80
2018-07-12T06:55:34.996Z,11.40
2018-07-12T07:00:41.367Z,11.87
2018-07-12T07:03:11.712Z,12.33
2018-07-12T07:05:41.112Z,11.63
2018-07-12T07:08:11.166Z,11.53
2018-07-12T07:10:41.409Z,11.60
2018-07-12T07:13:11.249Z,10.17
2018-07-12T07:15:40.671Z,10.25
2018-07-12T07:18:10.815Z,9.90
2018-07-12T07:20:40.228Z,9.63
2018-07-12T07:23:10.165Z,9.43
2018-07-12T07:25:39.711Z,10.67
2018-07-12T07:28:10.894Z,9.30
2018-07-12T07:30:40.153Z,10.10
2018-07-12T07:33:10.568Z,9.97
2018-07-12T07:35:40.577Z,9.40
2018-07-12T07:38:10.542Z,9.93
2018-07-12T07:40:39.725Z,10.30
2018-07-12T07:43:09.648Z,10.73
2018-07-12T07:45:39.297Z,10.58
2018-07-12T07:48:11.312Z,9.20
2018-07-12T07:50:42.068Z,9.30
2018-07-12T07:53:11.736Z,9.28
2018-07-12T07:55:40.756Z,8.53
2018-07-12T07:58:09.962Z,8.53
2018-07-12T08:00:39.045Z,9.15
2018-07-12T08:03:08.856Z,9.13
2018-07-12T08:05:38.243Z,9.27
2018-07-12T08:08:07.674Z,8.80
2018-07-12T08:10:36.959Z,9.17
2018-07-12T08:13:06.050Z,8.37
2018-07-12T08:15:35.359Z,9.60
2018-07-12T08:18:04.472Z,9.00
2018-07-12T08:20:33.574Z,22.17
2018-07-12T08:23:02.613Z,10.13
2018-07-12T08:25:31.773Z,9.05
2018-07-12T08:28:19.517Z,9.03
2018-07-12T08:30:48.603Z,9.63
2018-07-12T08:33:17.427Z,10.03
2018-07-12T08:35:46.417Z,9.93
2018-07-12T08:38:16.060Z,9.65
2018-07-12T08:40:45.432Z,10.23
2018-07-12T08:43:15.179Z,9.50
2018-07-12T08:45:45.386Z,10.57
2018-07-12T08:48:15.701Z,8.80
2018-07-12T08:50:45.118Z,9.23
2018-07-12T08:53:15.781Z,9.95
2018-07-12T08:55:47.739Z,9.77
2018-07-12T08:58:17.854Z,9.43
2018-07-12T09:00:48.161Z,9.03
2018-07-12T09:03:18.402Z,9.03
2018-07-12T09:05:48.382Z,9.23
2018-07-12T09:08:18.188Z,9.50
2018-07-12T09:10:48.192Z,9.90
2018-07-12T09:13:17.452Z,10.30
2018-07-12T09:15:47.576Z,9.23
2018-07-12T09:18:17.476Z,8.73
2018-07-12T09:20:47.924Z,9.30
2018-07-12T09:23:17.719Z,9.20
2018-07-12T09:25:47.244Z,8.45
2018-07-12T09:28:16.905Z,9.35
2018-07-12T09:30:46.876Z,9.60
2018-07-12T09:33:16.174Z,10.97
2018-07-12T09:35:45.862Z,8.87
2018-07-12T09:38:35.068Z,9.43
2018-07-12T09:41:06.800Z,9.90
2018-07-12T09:43:36.643Z,10.07
2018-07-12T09:46:08.445Z,10.00
2018-07-12T09:48:40.779Z,10.53
2018-07-12T09:51:11.800Z,11.73
2018-07-12T09:53:43.026Z,9.90
2018-07-12T09:56:13.216Z,9.20
2018-07-12T09:58:42.978Z,9.93
2018-07-12T10:01:18.092Z,9.63
2018-07-12T10:03:50.313Z,8.73
2018-07-12T10:06:26.279Z,8.87
2018-07-12T10:08:56.174Z,9.10
2018-07-12T10:11:32.268Z,10.23
2018-07-12T10:14:07.359Z,9.73
2018-07-12T10:16:42.167Z,10.60
2018-07-12T10:19:11.976Z,10.78
2018-07-12T10:21:42.122Z,10.32
2018-07-12T10:24:11.913Z,10.30
2018-07-12T10:26:42.795Z,10.15
2018-07-12T10:29:11.803Z,10.33
2018-07-12T10:31:43.164Z,9.28
2018-07-12T10:34:13.009Z,9.68
2018-07-12T10:36:43.369Z,11.53
2018-07-12T10:39:14.239Z,9.60
2018-07-12T10:41:44.142Z,10.13
2018-07-12T10:44:14.355Z,10.17
2018-07-12T10:46:44.627Z,9.25
2018-07-12T10:49:15.202Z,8.67
2018-07-12T10:51:45.254Z,9.13
2018-07-12T10:54:17.036Z,9.65
2018-07-12T10:56:47.641Z,9.73
2018-07-12T10:59:17.405Z,9.10
2018-07-12T11:01:47.665Z,9.85
2018-07-12T11:04:17.440Z,11.17
2018-07-12T11:06:46.965Z,8.70
2018-07-12T11:09:16.619Z,8.24
2018-07-12T11:11:46.953Z,8.67
2018-07-12T11:14:18.430Z,8.18
2018-07-12T11:16:48.427Z,10.80
2018-07-12T11:19:20.379Z,8.45
2018-07-12T11:21:50.976Z,8.35
2018-07-12T11:24:22.350Z,8.30
2018-07-12T11:26:54.234Z,8.75
2018-07-12T11:29:56.221Z,8.75
2018-07-12T11:32:25.979Z,9.50
2018-07-12T11:34:56.761Z,7.42
2018-07-12T11:37:27.657Z,7.47
2018-07-12T11:39:59.659Z,8.40
2018-07-12T11:42:32.113Z,8.03
2018-07-12T11:45:02.415Z,8.10
2018-07-12T11:47:31.889Z,7.65
2018-07-12T11:50:02.761Z,7.70
2018-07-12T11:52:34.973Z,9.00
2018-07-12T11:55:05.259Z,9.00
2018-07-12T11:57:37.495Z,7.97
2018-07-12T12:00:09.218Z,8.50
2018-07-12T12:02:40.469Z,7.45
2018-07-12T12:05:12.206Z,7.63
2018-07-12T12:07:42.690Z,8.78
2018-07-12T12:10:15.185Z,7.67
2018-07-12T12:12:46.085Z,7.37
2018-07-12T12:15:17.781Z,7.90
2018-07-12T12:17:48.081Z,6.90
2018-07-12T12:20:18.642Z,6.75
2018-07-12T12:22:48.336Z,8.33
2018-07-12T12:25:21.840Z,7.28
2018-07-12T12:27:54.780Z,5.27
2018-07-12T12:30:24.910Z,4.87
2018-07-12T12:32:55.773Z,5.33
2018-07-12T12:35:33.356Z,7.15
2018-07-12T12:38:03.512Z,5.80
2018-07-12T12:40:35.089Z,6.70
2018-07-12T12:43:05.162Z,7.03
2018-07-12T12:45:35.644Z,6.90
2018-07-12T12:48:07.053Z,6.60
2018-07-12T12:50:37.959Z,6.65
2018-07-12T12:53:09.422Z,6.17
2018-07-12T12:55:41.398Z,5.57
2018-07-12T12:58:11.592Z,5.30
2018-07-12T13:00:41.618Z,3.90
2018-07-12T13:03:14.283Z,4.10
2018-07-12T13:05:44.753Z,4.90
2018-07-12T13:08:16.481Z,4.30
2018-07-12T13:10:46.881Z,5.10
2018-07-12T13:13:17.009Z,5.50
2018-07-12T13:15:46.935Z,5.60
2018-07-12T13:18:18.781Z,5.90
2018-07-12T13:20:49.296Z,5.87
2018-07-12T13:23:22.241Z,5.57
2018-07-12T13:25:52.696Z,5.17
2018-07-12T13:28:24.798Z,5.13
2018-07-12T13:30:55.609Z,5.05
2018-07-12T13:33:34.551Z,5.00
2018-07-12T13:36:05.072Z,5.62
2018-07-12T13:38:35.721Z,5.25
2018-07-12T13:41:08.333Z,5.22
2018-07-12T13:43:40.443Z,5.70
2018-07-12T13:46:11.180Z,4.80
2018-07-12T13:48:42.010Z,5.33
2018-07-12T13:51:14.006Z,4.72
2018-07-12T13:53:44.407Z,5.05
2018-07-12T13:56:15.339Z,4.90
2018-07-12T13:58:45.680Z,4.70
2018-07-12T14:01:15.295Z,4.83
2018-07-12T14:03:45.382Z,4.80
2018-07-12T14:06:17.113Z,4.62
2018-07-12T14:08:46.607Z,4.45
2018-07-12T14:11:17.328Z,4.17
2018-07-12T14:13:47.606Z,4.78
2018-07-12T14:16:17.012Z,4.05
2018-07-12T14:18:46.300Z,3.90
2018-07-12T14:21:15.737Z,3.90
2018-07-12T14:23:46.047Z,3.65
2018-07-12T14:26:17.818Z,4.10
2018-07-12T14:28:50.084Z,3.90
2018-07-12T14:31:20.194Z,3.90
2018-07-12T14:33:50.547Z,4.28
2018-07-12T14:36:22.067Z,4.00
2018-07-12T14:38:55.563Z,3.45
2018-07-12T14:41:27.322Z,3.52
2018-07-12T14:44:04.576Z,4.60
2018-07-12T14:46:38.116Z,4.03
2018-07-12T14:49:12.008Z,3.40
2018-07-12T14:51:43.533Z,3.42
2018-07-12T14:54:14.632Z,2.92
2018-07-12T14:56:43.800Z,3.40
2018-07-12T14:59:13.642Z,4.30
2018-07-12T15:01:43.705Z,3.35
2018-07-12T15:04:12.883Z,3.70
2018-07-12T15:06:42.707Z,3.80
2018-07-12T15:09:12.987Z,3.62
2018-07-12T15:11:42.186Z,3.27
2018-07-12T15:14:11.834Z,3.10
2018-07-12T15:16:41.325Z,3.67
2018-07-12T15:19:10.418Z,3.57
2018-07-12T15:21:39.903Z,3.20
2018-07-12T15:24:09.367Z,3.70
2018-07-12T15:26:39.997Z,4.13
2018-07-12T15:29:10.306Z,3.07
2018-07-12T15:31:41.746Z,3.20
2018-07-12T15:34:11.981Z,3.00
2018-07-12T15:36:42.404Z,3.40
2018-07-12T15:39:16.035Z,3.20
2018-07-12T15:41:47.186Z,3.13
2018-07-12T15:44:17.490Z,3.03
2018-07-12T15:46:47.651Z,2.90
2018-07-12T15:49:19.284Z,3.40
2018-07-12T15:51:49.551Z,3.40
2018-07-12T15:54:19.370Z,2.90
2018-07-12T15:56:49.183Z,2.80
2018-07-12T15:59:18.733Z,3.33
2018-07-12T16:01:48.856Z,3.67
2018-07-12T16:04:18.554Z,3.30
2018-07-12T16:06:48.360Z,3.42
2018-07-12T16:09:19.789Z,3.17
2018-07-12T16:11:49.887Z,3.10
2018-07-12T16:14:19.477Z,3.30
2018-07-12T16:16:52.981Z,3.07
2018-07-12T16:19:22.852Z,3.50
2018-07-12T16:21:53.684Z,3.20
2018-07-12T16:24:23.852Z,3.30
2018-07-12T16:26:53.348Z,3.53
2018-07-12T16:29:25.569Z,3.40
2018-07-12T16:31:56.081Z,3.43
2018-07-12T16:34:26.101Z,3.70
2018-07-12T16:36:55.960Z,3.62
2018-07-12T16:39:25.641Z,3.30
2018-07-12T16:41:55.564Z,3.20
2018-07-12T16:44:26.048Z,3.63
2018-07-12T16:46:56.166Z,3.17
2018-07-12T16:49:25.782Z,3.50
2018-07-12T16:51:58.167Z,3.63
2018-07-12T16:54:29.539Z,3.57
2018-07-12T16:56:59.749Z,3.73
2018-07-12T16:59:29.826Z,3.73
2018-07-12T17:01:59.731Z,2.77
2018-07-12T17:04:30.732Z,3.20
2018-07-12T17:07:00.691Z,3.40
2018-07-12T17:09:30.484Z,3.23
2018-07-12T17:11:59.963Z,3.45
2018-07-12T17:14:30.384Z,2.90
2018-07-12T17:17:00.844Z,2.72
2018-07-12T17:19:31.509Z,3.23
2018-07-12T17:22:02.327Z,2.90
2018-07-12T17:24:31.833Z,3.30
2018-07-12T17:27:01.225Z,3.33
2018-07-12T17:29:30.821Z,3.77
2018-07-12T17:32:01.050Z,3.20
2018-07-12T17:34:31.264Z,3.60
2018-07-12T17:37:01.009Z,3.33
2018-07-12T17:39:30.972Z,3.20
2018-07-12T17:42:02.701Z,3.10
2018-07-12T17:44:34.706Z,3.17
2018-07-12T17:47:05.677Z,3.47
2018-07-12T17:49:37.144Z,3.27
2018-07-12T17:52:11.029Z,3.40
2018-07-12T17:54:41.760Z,3.07
2018-07-12T17:57:11.336Z,2.83
2018-07-12T17:59:41.293Z,2.90
2018-07-12T18:02:11.749Z,2.97
2018-07-12T18:04:42.131Z,2.90
2018-07-12T18:07:12.656Z,2.80
2018-07-12T18:09:41.691Z,2.90
2018-07-12T18:12:12.016Z,3.17
2018-07-12T18:14:42.724Z,2.60
2018-07-12T18:17:15.896Z,2.80
2018-07-12T18:19:50.787Z,3.10
2018-07-12T18:22:20.616Z,2.83
2018-07-12T18:24:51.395Z,2.95
2018-07-12T18:27:22.124Z,2.85
2018-07-12T18:29:51.992Z,3.20
2018-07-12T18:32:22.263Z,3.50
2018-07-12T18:34:53.413Z,3.55
2018-07-12T18:37:25.738Z,3.17
2018-07-12T18:39:55.934Z,3.47
2018-07-12T18:42:25.833Z,3.00
2018-07-12T18:44:55.412Z,3.12
2018-07-12T18:47:25.459Z,3.57
2018-07-12T18:49:57.310Z,3.22
2018-07-12T18:52:26.877Z,3.47
2018-07-12T18:54:58.894Z,3.17
2018-07-12T18:57:29.353Z,3.00
2018-07-12T18:59:58.963Z,2.83
2018-07-12T19:02:28.885Z,2.73
2018-07-12T19:04:58.972Z,2.93
2018-07-12T19:07:28.084Z,3.60
2018-07-12T19:09:58.505Z,3.33
2018-07-12T19:12:29.122Z,3.02
2018-07-12T19:14:58.526Z,3.60
2018-07-12T19:17:27.745Z,3.23
2018-07-12T19:19:58.417Z,3.47
2018-07-12T19:22:28.525Z,2.87
2018-07-12T19:24:58.415Z,2.90
2018-07-12T19:27:28.390Z,3.30
2018-07-12T19:30:00.636Z,3.00
2018-07-12T19:32:30.581Z,4.00
2018-07-12T19:35:01.682Z,3.53
2018-07-12T19:37:31.566Z,3.40
2018-07-12T19:40:02.528Z,3.42
2018-07-12T19:42:32.590Z,3.97
2018-07-12T19:45:02.791Z,2.93
2018-07-12T19:47:33.028Z,3.58
2018-07-12T19:50:05.295Z,3.90
2018-07-12T19:52:35.952Z,3.15
2018-07-12T19:55:05.897Z,3.73
2018-07-12T19:57:37.159Z,3.34
2018-07-12T20:00:09.559Z,4.00
2018-07-12T20:02:39.284Z,3.47
2018-07-12T20:05:12.914Z,3.10
2018-07-12T20:07:42.909Z,3.83
2018-07-12T20:10:14.213Z,3.10
2018-07-12T20:12:44.157Z,3.33
2018-07-12T20:15:15.531Z,3.77
2018-07-12T20:17:45.757Z,3.60
2018-07-12T20:20:15.704Z,3.33
2018-07-12T20:22:45.691Z,3.50
2018-07-12T20:25:16.147Z,3.63
2018-07-12T20:27:48.571Z,3.80
2018-07-12T20:30:19.269Z,4.10
2018-07-12T20:32:49.220Z,3.90
2018-07-12T20:35:19.005Z,3.23
2018-07-12T20:37:49.440Z,3.73
2018-07-12T20:40:25.295Z,4.17
2018-07-12T20:42:56.214Z,3.97
2018-07-12T20:45:31.670Z,3.50
2018-07-12T20:48:02.273Z,3.60
2018-07-12T20:50:31.547Z,3.37
2018-07-12T20:53:02.346Z,3.63
2018-07-12T20:55:31.754Z,3.75
2018-07-12T20:58:03.611Z,4.10
2018-07-12T21:00:32.933Z,3.65
2018-07-12T21:03:03.496Z,3.50
2018-07-12T21:05:36.647Z,4.20
2018-07-12T21:08:08.766Z,4.30
2018-07-12T21:10:39.043Z,4.33
2018-07-12T21:13:09.219Z,5.60
2018-07-12T21:15:42.991Z,4.90
2018-07-12T21:18:15.298Z,4.65
2018-07-12T21:20:51.928Z,4.50
2018-07-12T21:23:22.131Z,4.70
2018-07-12T21:25:51.804Z,4.77
2018-07-12T21:28:21.115Z,4.00
2018-07-12T21:30:50.296Z,3.58
2018-07-12T21:33:19.440Z,3.30
2018-07-12T21:35:48.602Z,3.27
2018-07-12T21:38:18.891Z,3.30
2018-07-12T21:40:48.265Z,3.70
2018-07-12T21:43:18.128Z,4.13
2018-07-12T21:45:48.256Z,3.47
2018-07-12T21:48:17.452Z,3.87
2018-07-12T21:50:47.538Z,3.63
2018-07-12T21:53:16.702Z,3.83
2018-07-12T21:55:45.830Z,3.95
2018-07-12T21:58:15.298Z,3.75
2018-07-12T22:00:44.484Z,3.72
2018-07-12T22:03:13.854Z,4.10
2018-07-12T22:05:43.088Z,3.98
2018-07-12T22:08:13.970Z,4.20
2018-07-12T22:10:44.668Z,4.07
2018-07-12T22:13:14.881Z,3.60
2018-07-12T22:15:45.323Z,3.53
2018-07-12T22:18:16.053Z,3.40
2018-07-12T22:20:45.241Z,3.53
2018-07-12T22:23:14.471Z,3.30
2018-07-12T22:25:43.652Z,3.50
2018-07-12T22:28:13.665Z,3.17
2018-07-12T22:30:43.067Z,3.20
2018-07-12T22:33:12.409Z,3.50
2018-07-12T22:35:41.778Z,3.63
2018-07-12T22:38:10.708Z,3.43
2018-07-12T22:40:39.854Z,4.10
2018-07-12T22:43:09.842Z,3.95
2018-07-12T22:45:40.176Z,3.83
2018-07-12T22:48:09.543Z,3.97
2018-07-12T22:50:38.985Z,3.47
2018-07-12T22:53:09.122Z,3.40
2018-07-12T22:55:38.439Z,3.27
2018-07-12T22:58:08.460Z,2.93
2018-07-12T23:00:37.909Z,3.40
2018-07-12T23:03:07.106Z,3.17
2018-07-12T23:05:36.249Z,3.40
2018-07-12T23:08:06.115Z,3.13
2018-07-12T23:10:35.423Z,3.50
2018-07-12T23:13:04.683Z,3.57
2018-07-12T23:15:34.545Z,3.70
2018-07-12T23:18:04.800Z,3.30
2018-07-12T23:20:34.076Z,3.07
2018-07-12T23:23:03.300Z,3.53
2018-07-12T23:25:32.555Z,3.93
2018-07-12T23:28:01.808Z,3.97
2018-07-12T23:30:31.035Z,3.63
2018-07-12T23:33:00.281Z,3.60
2018-07-12T23:35:29.608Z,4.10
2018-07-12T23:37:58.916Z,4.27
2018-07-12T23:40:28.100Z,4.15
2018-07-12T23:42:57.732Z,4.25
2018-07-12T23:45:27.330Z,4.50
2018-07-12T23:47:56.740Z,4.33
2018-07-12T23:50:25.914Z,4.63
2018-07-12T23:52:55.155Z,4.60
2018-07-12T23:55:24.331Z,4.83
2018-07-12T23:57:53.462Z,4.70
